首页
METAR-TAF:

METAR-TAF

机场 :

成都, 中华人民共和国

成都双流国际机场

纬度: 30-40N, 经度: 104-01E, 海拔: 508米

当前天气观测

该预报发布于11分钟前的00:00 UTC
静风
温度 10°C
湿度 76%
气压 1024 hPa
能見度: 6000

METAR: ZUUU 250000Z 00000MPS 6000 NSC 10/06 Q1024 NOSIG

时间: 08:11 (00:11 UTC)

预报

该预报发布于4小时和9分钟前的20:02 UTC
预报有效从25日的 00点(UTC)到 25日的 24点(UTC)
风速6节,风向南转西南
能見度: 5000
散云层高于5000英尺
轻雾

TAF: ZUUU 242002Z 2500/2524 20003MPS 5000 BR SCT050 TX19/2507Z TN07/2523Z

超过4000个机场的气象观测和天气预报(METAR&TAF报告)。

可查询的气象台以黄色和红色小点在地图上表示。

将鼠标移到小点上方,可查看气象台名称。

然后点击查看天气观测和预报。

如需切换地图:点击带黑十字的绿色按钮放大地图;点击带横线的绿色按钮缩小地图;或者点击绿色箭头查看邻近地区的地图。


METAR-TAF: